John P. Tully — CG2958 — position and weather

sailwx.info

Track history (hours):
 
Tides and Currents Weather Stations Pressure Air Temp Water Temp Dewpoint Dewpoint Depression Visibility Wind Speed Wind Dir Waves Ship Positions

Oceanographic research ship John P. Tully (Canada)

Detailed information on ship capabilities available from University of Delaware's Ocean Information Center.

Last reported at 2019-Jul-18 14:17 UTC. Time now 2019-Jul-22 01:45 UTC.
Position N 48°27' W 126°24'.

Length 68.9 m; beam 14.5 m; draft 4.5 m.

Type: SAR. MMSI: 316114000.

Date/timePositionNaut miles runAvg speedWind from/ knotsBaromVisibWave heightAir tempDewpointWater temp
2019-Jul-18 14:17N 48°27' W 126°24'2 8.0
2019-Jul-18 14:00N 48°27' W 126°21'4 7.9
2019-Jul-18 13:29N 48°27' W 126°15'4 7.8
2019-Jul-18 12:57N 48°28' W 126°09'4 7.8
2019-Jul-18 12:27N 48°28' W 126°03'4 7.9
2019-Jul-18 11:59N 48°28' W 125°57'4 7.6
2019-Jul-18 11:30N 48°29' W 125°52'4 7.7
2019-Jul-18 11:00N 48°29' W 125°46'4 7.4
2019-Jul-18 10:30N 48°29' W 125°40'4 7.4
2019-Jul-18 10:00N 48°30' W 125°35'4 7.6
2019-Jul-18 09:30N 48°30' W 125°29'4 7.5
2019-Jul-18 09:00N 48°30' W 125°24'4 8.3
2019-Jul-18 08:29N 48°31' W 125°17'5 7.9
2019-Jul-18 07:53N 48°31' W 125°10'4 8.0
2019-Jul-18 07:27N 48°31' W 125°05'4 8.5
2019-Jul-18 07:00N 48°31' W 124°59'4 8.8
2019-Jul-18 06:30N 48°31' W 124°52'5 9.1
2019-Jul-18 06:00N 48°31' W 124°45'511.3
2019-Jul-18 05:30N 48°29' W 124°37'611.8
2019-Jul-18 05:00N 48°27' W 124°29'611.6
2019-Jul-18 04:30N 48°25' W 124°21'611.3
2019-Jul-18 04:00N 48°22' W 124°13'611.3
2019-Jul-18 03:30N 48°20' W 124°05'611.2
2019-Jul-18 03:00N 48°19' W 123°57'511.2
2019-Jul-18 02:30N 48°18' W 123°49'510.5
2019-Jul-18 01:59N 48°16' W 123°41'510.0
2019-Jul-18 01:30N 48°16' W 123°34'4 7.6
2019-Jul-18 01:00N 48°17' W 123°29'510.4
2019-Jul-18 00:30N 48°22' W 123°25'4 8.6
2019-Jul-18 00:00N 48°23' W 123°19'4 7.2
2019-Jul-17 23:30N 48°24' W 123°14'4 8.2
2019-Jul-17 23:00N 48°28' W 123°12'5 9.7
2019-Jul-17 22:30N 48°33' W 123°13'5 9.0
2019-Jul-17 22:00N 48°37' W 123°15'5 9.6
2019-Jul-17 21:30N 48°42' W 123°16'4 8.1
2019-Jul-17 21:00N 48°45' W 123°21'4 8.8
2019-Jul-17 20:30N 48°43' W 123°27'4 8.2
2019-Jul-17 20:00N 48°39' W 123°30'0 0.3
2019-Jul-17 19:30N 48°39' W 123°30'0 0.2
2019-Jul-17 19:00N 48°39' W 123°30'0 0.3
2019-Jul-17 18:30N 48°39' W 123°30'0 0.2
2019-Jul-17 18:00N 48°39' W 123°30'0 0.1
2019-Jul-17 17:30N 48°39' W 123°30'0 0.2
2019-Jul-17 17:00N 48°40' W 123°30'2 4.1
2019-Jul-17 16:29N 48°39' W 123°27'0 0.0
2019-Jul-17 15:59N 48°39' W 123°27'0 0.0
2019-Jul-17 15:29N 48°39' W 123°27'0 0.0
2019-Jul-17 14:59N 48°39' W 123°27'0 0.0
2019-Jul-17 14:26N 48°39' W 123°27'0 0.0
2019-Jul-17 13:59N 48°39' W 123°27'0 0.0
2019-Jul-17 13:29N 48°39' W 123°27'0 0.0
2019-Jul-17 12:59N 48°39' W 123°27'0 0.0
2019-Jul-17 12:29N 48°39' W 123°27'0 0.0
2019-Jul-17 11:59N 48°39' W 123°27'0 0.0
2019-Jul-17 11:26N 48°39' W 123°27'0 0.0
2019-Jul-17 10:59N 48°39' W 123°27'0 0.0
2019-Jul-17 10:29N 48°39' W 123°27'0 0.0
2019-Jul-17 09:59N 48°39' W 123°27'0 0.0
2019-Jul-17 09:29N 48°39' W 123°27'0 0.0
2019-Jul-17 08:59N 48°39' W 123°27'0 0.0
2019-Jul-17 08:29N 48°39' W 123°27'0 0.0
2019-Jul-17 07:59N 48°39' W 123°27'0 0.0
2019-Jul-17 07:26N 48°39' W 123°27'0 0.0
2019-Jul-17 06:56N 48°39' W 123°27'0 0.0
2019-Jul-17 06:29N 48°39' W 123°27'0 0.0
2019-Jul-17 05:59N 48°39' W 123°27'0 0.0
2019-Jul-17 05:26N 48°39' W 123°27'0 0.0
2019-Jul-17 04:44N 48°39' W 123°27'0 0.0
2019-Jul-17 04:23N 48°39' W 123°27'0 0.0
2019-Jul-17 03:47N 48°39' W 123°27'0 0.0
2019-Jul-17 03:26N 48°39' W 123°27'0 0.0
2019-Jul-17 01:56N 48°39' W 123°27'0 0.0
2019-Jul-17 00:44N 48°39' W 123°27'0 0.0
2019-Jul-17 00:23N 48°39' W 123°27'0 0.0
2019-Jul-16 23:47N 48°39' W 123°27'0 0.0
2019-Jul-16 23:26N 48°39' W 123°27'0 0.0
2019-Jul-16 22:41N 48°39' W 123°27'0 0.0
2019-Jul-16 22:20N 48°39' W 123°27'0 0.0
2019-Jul-16 21:29N 48°39' W 123°27'0 0.0
2019-Jul-16 17:37N 48°39' W 123°27'0 0.0
2019-Jul-16 14:03N 48°39' W 123°27'0 0.0
2019-Jul-16 07:51N 48°39' W 123°27'0 0.0
2019-Jul-16 06:52N 48°39' W 123°27'0 0.0
2019-Jul-16 05:34N 48°39' W 123°27'0 0.0
2019-Jul-16 00:49N 48°39' W 123°27'0 0.0
2019-Jul-16 00:21N 48°39' W 123°27'0 0.0
2019-Jul-15 22:37N 48°39' W 123°27'0 0.0
2019-Jul-15 21:46N 48°39' W 123°27'0 0.0
2019-Jul-15 21:21N 48°39' W 123°27'0 0.0
2019-Jul-15 19:58N 48°39' W 123°27'0 0.0
2019-Jul-15 17:34N 48°39' W 123°27'0 0.0
2019-Jul-15 16:39N 48°39' W 123°27'0 0.0
2019-Jul-15 15:21N 48°39' W 123°27'0 0.0
2019-Jul-15 14:40N 48°39' W 123°27'0 0.0
2019-Jul-15 14:29N 48°39' W 123°27'0 0.9
2019-Jul-15 13:58N 48°39' W 123°28'1 1.7
2019-Jul-15 13:24N 48°39' W 123°29'1 2.5
2019-Jul-15 13:00N 48°40' W 123°30'5 8.9
2019-Jul-15 12:25N 48°44' W 123°25'410.3
2019-Jul-15 12:00N 48°44' W 123°18'5 9.7
2019-Jul-15 11:30N 48°40' W 123°14'4 7.1
2019-Jul-15 11:00N 48°37' W 123°13'510.8
2019-Jul-15 10:30N 48°32' W 123°11'611.1
2019-Jul-15 10:00N 48°26' W 123°10'510.5
2019-Jul-15 09:30N 48°23' W 123°16'510.9
2019-Jul-15 09:00N 48°21' W 123°24'611.2
2019-Jul-15 08:28N 48°15' W 123°27'610.9
2019-Jul-15 07:57N 48°13' W 123°35'510.2
2019-Jul-15 07:30N 48°13' W 123°42'510.3
2019-Jul-15 06:59N 48°13' W 123°50'510.7
2019-Jul-15 06:30N 48°14' W 123°58'510.3
2019-Jul-15 06:00N 48°16' W 124°04'5 9.6
2019-Jul-15 05:30N 48°18' W 124°11'5 9.2
2019-Jul-15 05:00N 48°20' W 124°17'5 9.6
2019-Jul-15 04:30N 48°22' W 124°24'5 9.3
2019-Jul-15 04:00N 48°24' W 124°30'4 8.8
2019-Jul-15 03:30N 48°26' W 124°36'4 8.9
2019-Jul-15 03:00N 48°28' W 124°42'5 9.0
2019-Jul-15 02:30N 48°28' W 124°49'5 9.2
2019-Jul-15 02:00N 48°28' W 124°56'5 9.4
2019-Jul-15 01:29N 48°28' W 125°03'610.4
2019-Jul-15 00:57N 48°28' W 125°12'510.9
2019-Jul-15 00:30N 48°27' W 125°19'610.5
2019-Jul-14 23:58N 48°26' W 125°27'510.1
2019-Jul-14 23:30N 48°25' W 125°34'510.0
2019-Jul-14 23:00N 48°23' W 125°41'510.3
2019-Jul-14 22:30N 48°22' W 125°49'3 6.3
2019-Jul-14 22:00N 48°22' W 125°53'2 4.6
2019-Jul-14 21:28N 48°20' W 125°51'4 7.9
2019-Jul-14 20:56N 48°17' W 125°46'4 9.4
2019-Jul-14 20:29N 48°20' W 125°42'2 4.6
2019-Jul-14 20:00N 48°21' W 125°39'5 9.5
2019-Jul-14 19:30N 48°24' W 125°33'4 8.6
2019-Jul-14 19:00N 48°27' W 125°29'1 2.7
2019-Jul-14 18:30N 48°27' W 125°27'5 9.5
2019-Jul-14 18:00N 48°29' W 125°21'4 9.2
2019-Jul-14 17:30N 48°30' W 125°28'5 9.4
2019-Jul-14 17:00N 48°31' W 125°35'5 9.6
2019-Jul-14 16:30N 48°32' W 125°42'5 9.5
2019-Jul-14 16:00N 48°33' W 125°49'510.0
2019-Jul-14 15:30N 48°34' W 125°56'510.0
2019-Jul-14 15:00N 48°35' W 126°04'5 9.8
2019-Jul-14 14:30N 48°36' W 126°11'510.0
2019-Jul-14 14:00N 48°37' W 126°18'  
2019-Jul-09 02:05N 50°43' W 130°60'  
Track history (hours):
 
Tides and Currents Weather Stations Pressure Air Temp Water Temp Dewpoint Dewpoint Depression Visibility Wind Speed Wind Dir Waves Ship Positions

Oceanographic research ship John P. Tully (Canada)

Detailed information on ship capabilities available from University of Delaware's Ocean Information Center.

Last reported at 2019-Jul-18 14:17 UTC. Time now 2019-Jul-22 01:45 UTC.
Position N 48°27' W 126°24'.

Length 68.9 m; beam 14.5 m; draft 4.5 m.

Type: SAR. MMSI: 316114000.

Date/timePositionNaut miles runAvg speedWind from/ knotsBaromVisibWave heightAir tempDewpointWater temp
2019-Jul-18 14:17N 48°27' W 126°24'2 8.0
2019-Jul-18 14:00N 48°27' W 126°21'4 7.9
2019-Jul-18 13:29N 48°27' W 126°15'4 7.8
2019-Jul-18 12:57N 48°28' W 126°09'4 7.8
2019-Jul-18 12:27N 48°28' W 126°03'4 7.9
2019-Jul-18 11:59N 48°28' W 125°57'4 7.6
2019-Jul-18 11:30N 48°29' W 125°52'4 7.7
2019-Jul-18 11:00N 48°29' W 125°46'4 7.4
2019-Jul-18 10:30N 48°29' W 125°40'4 7.4
2019-Jul-18 10:00N 48°30' W 125°35'4 7.6
2019-Jul-18 09:30N 48°30' W 125°29'4 7.5
2019-Jul-18 09:00N 48°30' W 125°24'4 8.3
2019-Jul-18 08:29N 48°31' W 125°17'5 7.9
2019-Jul-18 07:53N 48°31' W 125°10'4 8.0
2019-Jul-18 07:27N 48°31' W 125°05'4 8.5
2019-Jul-18 07:00N 48°31' W 124°59'4 8.8
2019-Jul-18 06:30N 48°31' W 124°52'5 9.1
2019-Jul-18 06:00N 48°31' W 124°45'511.3
2019-Jul-18 05:30N 48°29' W 124°37'611.8
2019-Jul-18 05:00N 48°27' W 124°29'611.6
2019-Jul-18 04:30N 48°25' W 124°21'611.3
2019-Jul-18 04:00N 48°22' W 124°13'611.3
2019-Jul-18 03:30N 48°20' W 124°05'611.2
2019-Jul-18 03:00N 48°19' W 123°57'511.2
2019-Jul-18 02:30N 48°18' W 123°49'510.5
2019-Jul-18 01:59N 48°16' W 123°41'510.0
2019-Jul-18 01:30N 48°16' W 123°34'4 7.6
2019-Jul-18 01:00N 48°17' W 123°29'510.4
2019-Jul-18 00:30N 48°22' W 123°25'4 8.6
2019-Jul-18 00:00N 48°23' W 123°19'4 7.2
2019-Jul-17 23:30N 48°24' W 123°14'4 8.2
2019-Jul-17 23:00N 48°28' W 123°12'5 9.7
2019-Jul-17 22:30N 48°33' W 123°13'5 9.0
2019-Jul-17 22:00N 48°37' W 123°15'5 9.6
2019-Jul-17 21:30N 48°42' W 123°16'4 8.1
2019-Jul-17 21:00N 48°45' W 123°21'4 8.8
2019-Jul-17 20:30N 48°43' W 123°27'4 8.2
2019-Jul-17 20:00N 48°39' W 123°30'0 0.3
2019-Jul-17 19:30N 48°39' W 123°30'0 0.2
2019-Jul-17 19:00N 48°39' W 123°30'0 0.3
2019-Jul-17 18:30N 48°39' W 123°30'0 0.2
2019-Jul-17 18:00N 48°39' W 123°30'0 0.1
2019-Jul-17 17:30N 48°39' W 123°30'0 0.2
2019-Jul-17 17:00N 48°40' W 123°30'2 4.1
2019-Jul-17 16:29N 48°39' W 123°27'0 0.0
2019-Jul-17 15:59N 48°39' W 123°27'0 0.0
2019-Jul-17 15:29N 48°39' W 123°27'0 0.0
2019-Jul-17 14:59N 48°39' W 123°27'0 0.0
2019-Jul-17 14:26N 48°39' W 123°27'0 0.0
2019-Jul-17 13:59N 48°39' W 123°27'0 0.0
2019-Jul-17 13:29N 48°39' W 123°27'0 0.0
2019-Jul-17 12:59N 48°39' W 123°27'0 0.0
2019-Jul-17 12:29N 48°39' W 123°27'0 0.0
2019-Jul-17 11:59N 48°39' W 123°27'0 0.0
2019-Jul-17 11:26N 48°39' W 123°27'0 0.0
2019-Jul-17 10:59N 48°39' W 123°27'0 0.0
2019-Jul-17 10:29N 48°39' W 123°27'0 0.0
2019-Jul-17 09:59N 48°39' W 123°27'0 0.0
2019-Jul-17 09:29N 48°39' W 123°27'0 0.0
2019-Jul-17 08:59N 48°39' W 123°27'0 0.0
2019-Jul-17 08:29N 48°39' W 123°27'0 0.0
2019-Jul-17 07:59N 48°39' W 123°27'0 0.0
2019-Jul-17 07:26N 48°39' W 123°27'0 0.0
2019-Jul-17 06:56N 48°39' W 123°27'0 0.0
2019-Jul-17 06:29N 48°39' W 123°27'0 0.0
2019-Jul-17 05:59N 48°39' W 123°27'0 0.0
2019-Jul-17 05:26N 48°39' W 123°27'0 0.0
2019-Jul-17 04:44N 48°39' W 123°27'0 0.0
2019-Jul-17 04:23N 48°39' W 123°27'0 0.0
2019-Jul-17 03:47N 48°39' W 123°27'0 0.0
2019-Jul-17 03:26N 48°39' W 123°27'0 0.0
2019-Jul-17 01:56N 48°39' W 123°27'0 0.0
2019-Jul-17 00:44N 48°39' W 123°27'0 0.0
2019-Jul-17 00:23N 48°39' W 123°27'0 0.0
2019-Jul-16 23:47N 48°39' W 123°27'0 0.0
2019-Jul-16 23:26N 48°39' W 123°27'0 0.0
2019-Jul-16 22:41N 48°39' W 123°27'0 0.0
2019-Jul-16 22:20N 48°39' W 123°27'0 0.0
2019-Jul-16 21:29N 48°39' W 123°27'0 0.0
2019-Jul-16 17:37N 48°39' W 123°27'0 0.0
2019-Jul-16 14:03N 48°39' W 123°27'0 0.0
2019-Jul-16 07:51N 48°39' W 123°27'0 0.0
2019-Jul-16 06:52N 48°39' W 123°27'0 0.0
2019-Jul-16 05:34N 48°39' W 123°27'0 0.0
2019-Jul-16 00:49N 48°39' W 123°27'0 0.0
2019-Jul-16 00:21N 48°39' W 123°27'0 0.0
2019-Jul-15 22:37N 48°39' W 123°27'0 0.0
2019-Jul-15 21:46N 48°39' W 123°27'0 0.0
2019-Jul-15 21:21N 48°39' W 123°27'0 0.0
2019-Jul-15 19:58N 48°39' W 123°27'0 0.0
2019-Jul-15 17:34N 48°39' W 123°27'0 0.0
2019-Jul-15 16:39N 48°39' W 123°27'0 0.0
2019-Jul-15 15:21N 48°39' W 123°27'0 0.0
2019-Jul-15 14:40N 48°39' W 123°27'0 0.0
2019-Jul-15 14:29N 48°39' W 123°27'0 0.9
2019-Jul-15 13:58N 48°39' W 123°28'1 1.7
2019-Jul-15 13:24N 48°39' W 123°29'1 2.5
2019-Jul-15 13:00N 48°40' W 123°30'5 8.9
2019-Jul-15 12:25N 48°44' W 123°25'410.3
2019-Jul-15 12:00N 48°44' W 123°18'5 9.7
2019-Jul-15 11:30N 48°40' W 123°14'4 7.1
2019-Jul-15 11:00N 48°37' W 123°13'510.8
2019-Jul-15 10:30N 48°32' W 123°11'611.1
2019-Jul-15 10:00N 48°26' W 123°10'510.5
2019-Jul-15 09:30N 48°23' W 123°16'510.9
2019-Jul-15 09:00N 48°21' W 123°24'611.2
2019-Jul-15 08:28N 48°15' W 123°27'610.9
2019-Jul-15 07:57N 48°13' W 123°35'510.2
2019-Jul-15 07:30N 48°13' W 123°42'510.3
2019-Jul-15 06:59N 48°13' W 123°50'510.7
2019-Jul-15 06:30N 48°14' W 123°58'510.3
2019-Jul-15 06:00N 48°16' W 124°04'5 9.6
2019-Jul-15 05:30N 48°18' W 124°11'5 9.2
2019-Jul-15 05:00N 48°20' W 124°17'5 9.6
2019-Jul-15 04:30N 48°22' W 124°24'5 9.3
2019-Jul-15 04:00N 48°24' W 124°30'4 8.8
2019-Jul-15 03:30N 48°26' W 124°36'4 8.9
2019-Jul-15 03:00N 48°28' W 124°42'5 9.0
2019-Jul-15 02:30N 48°28' W 124°49'5 9.2
2019-Jul-15 02:00N 48°28' W 124°56'5 9.4
2019-Jul-15 01:29N 48°28' W 125°03'610.4
2019-Jul-15 00:57N 48°28' W 125°12'510.9
2019-Jul-15 00:30N 48°27' W 125°19'610.5
2019-Jul-14 23:58N 48°26' W 125°27'510.1
2019-Jul-14 23:30N 48°25' W 125°34'510.0
2019-Jul-14 23:00N 48°23' W 125°41'510.3
2019-Jul-14 22:30N 48°22' W 125°49'3 6.3
2019-Jul-14 22:00N 48°22' W 125°53'2 4.6
2019-Jul-14 21:28N 48°20' W 125°51'4 7.9
2019-Jul-14 20:56N 48°17' W 125°46'4 9.4
2019-Jul-14 20:29N 48°20' W 125°42'2 4.6
2019-Jul-14 20:00N 48°21' W 125°39'5 9.5
2019-Jul-14 19:30N 48°24' W 125°33'4 8.6
2019-Jul-14 19:00N 48°27' W 125°29'1 2.7
2019-Jul-14 18:30N 48°27' W 125°27'5 9.5
2019-Jul-14 18:00N 48°29' W 125°21'4 9.2
2019-Jul-14 17:30N 48°30' W 125°28'5 9.4
2019-Jul-14 17:00N 48°31' W 125°35'5 9.6
2019-Jul-14 16:30N 48°32' W 125°42'5 9.5
2019-Jul-14 16:00N 48°33' W 125°49'510.0
2019-Jul-14 15:30N 48°34' W 125°56'510.0
2019-Jul-14 15:00N 48°35' W 126°04'5 9.8
2019-Jul-14 14:30N 48°36' W 126°11'510.0
2019-Jul-14 14:00N 48°37' W 126°18'  
2019-Jul-09 02:05N 50°43' W 130°60'  

Dump ship's entire track history